sensor_id;sensor_type;location;lat;lon;timestamp;P1;durP1;ratioP1;P2;durP2;ratioP2
11797;SDS011;5956;51.428;6.682;2023-02-18T00:01:19;14.73;;;13.37;;
11797;SDS011;5956;51.428;6.682;2023-02-18T00:03:46;15.90;;;14.37;;
11797;SDS011;5956;51.428;6.682;2023-02-18T00:06:14;15.73;;;14.30;;
11797;SDS011;5956;51.428;6.682;2023-02-18T00:08:41;15.00;;;13.50;;
11797;SDS011;5956;51.428;6.682;2023-02-18T00:11:08;15.60;;;14.20;;
11797;SDS011;5956;51.428;6.682;2023-02-18T00:13:34;16.00;;;14.70;;
11797;SDS011;5956;51.428;6.682;2023-02-18T00:16:03;15.70;;;14.10;;
11797;SDS011;5956;51.428;6.682;2023-02-18T00:18:30;16.37;;;14.13;;
11797;SDS011;5956;51.428;6.682;2023-02-18T00:20:57;16.87;;;15.10;;
11797;SDS011;5956;51.428;6.682;2023-02-18T00:23:23;15.13;;;13.67;;
11797;SDS011;5956;51.428;6.682;2023-02-18T00:25:57;16.03;;;14.63;;
11797;SDS011;5956;51.428;6.682;2023-02-18T00:28:24;15.63;;;14.13;;
11797;SDS011;5956;51.428;6.682;2023-02-18T00:30:50;16.60;;;14.97;;
11797;SDS011;5956;51.428;6.682;2023-02-18T00:33:18;16.67;;;15.13;;
11797;SDS011;5956;51.428;6.682;2023-02-18T00:35:45;15.63;;;14.23;;
11797;SDS011;5956;51.428;6.682;2023-02-18T00:38:11;16.50;;;14.97;;
11797;SDS011;5956;51.428;6.682;2023-02-18T00:40:38;16.07;;;14.57;;
11797;SDS011;5956;51.428;6.682;2023-02-18T00:43:06;16.90;;;15.40;;
11797;SDS011;5956;51.428;6.682;2023-02-18T00:45:32;15.87;;;14.37;;
11797;SDS011;5956;51.428;6.682;2023-02-18T00:47:59;16.27;;;14.87;;
11797;SDS011;5956;51.428;6.682;2023-02-18T00:50:27;16.57;;;15.03;;
11797;SDS011;5956;51.428;6.682;2023-02-18T00:52:54;16.43;;;14.73;;
11797;SDS011;5956;51.428;6.682;2023-02-18T00:55:20;15.57;;;14.20;;
11797;SDS011;5956;51.428;6.682;2023-02-18T00:57:47;17.67;;;15.77;;
11797;SDS011;5956;51.428;6.682;2023-02-18T01:00:14;17.30;;;15.33;;
11797;SDS011;5956;51.428;6.682;2023-02-18T01:02:41;17.23;;;15.50;;
11797;SDS011;5956;51.428;6.682;2023-02-18T01:05:08;17.77;;;16.03;;
11797;SDS011;5956;51.428;6.682;2023-02-18T01:07:36;19.43;;;17.03;;
11797;SDS011;5956;51.428;6.682;2023-02-18T01:10:03;17.37;;;15.70;;
11797;SDS011;5956;51.428;6.682;2023-02-18T01:12:29;17.20;;;15.43;;
11797;SDS011;5956;51.428;6.682;2023-02-18T01:14:56;17.70;;;16.00;;
11797;SDS011;5956;51.428;6.682;2023-02-18T01:17:22;18.30;;;16.53;;
11797;SDS011;5956;51.428;6.682;2023-02-18T01:19:49;16.87;;;15.17;;
11797;SDS011;5956;51.428;6.682;2023-02-18T01:22:15;17.23;;;15.50;;
11797;SDS011;5956;51.428;6.682;2023-02-18T01:24:43;16.00;;;14.43;;
11797;SDS011;5956;51.428;6.682;2023-02-18T01:27:10;16.87;;;15.23;;
11797;SDS011;5956;51.428;6.682;2023-02-18T01:29:37;16.90;;;14.77;;
11797;SDS011;5956;51.428;6.682;2023-02-18T01:32:03;15.97;;;14.57;;
11797;SDS011;5956;51.428;6.682;2023-02-18T01:34:30;15.97;;;14.37;;
11797;SDS011;5956;51.428;6.682;2023-02-18T01:36:57;15.67;;;14.30;;
11797;SDS011;5956;51.428;6.682;2023-02-18T01:39:23;15.50;;;14.07;;
11797;SDS011;5956;51.428;6.682;2023-02-18T01:41:51;15.77;;;14.10;;
11797;SDS011;5956;51.428;6.682;2023-02-18T01:44:19;15.87;;;14.33;;
11797;SDS011;5956;51.428;6.682;2023-02-18T01:46:46;14.37;;;12.97;;
11797;SDS011;5956;51.428;6.682;2023-02-18T01:49:14;14.50;;;13.23;;
11797;SDS011;5956;51.428;6.682;2023-02-18T01:51:42;14.90;;;13.40;;
11797;SDS011;5956;51.428;6.682;2023-02-18T01:54:10;13.27;;;12.00;;
11797;SDS011;5956;51.428;6.682;2023-02-18T01:56:39;12.23;;;11.07;;
11797;SDS011;5956;51.428;6.682;2023-02-18T01:59:09;13.20;;;11.90;;
11797;SDS011;5956;51.428;6.682;2023-02-18T02:01:36;12.67;;;11.50;;
11797;SDS011;5956;51.428;6.682;2023-02-18T02:04:04;12.20;;;11.10;;
11797;SDS011;5956;51.428;6.682;2023-02-18T02:06:30;12.10;;;11.00;;
11797;SDS011;5956;51.428;6.682;2023-02-18T02:08:57;11.40;;;10.40;;
11797;SDS011;5956;51.428;6.682;2023-02-18T02:11:35;11.73;;;10.63;;
11797;SDS011;5956;51.428;6.682;2023-02-18T02:14:10;11.47;;;10.47;;
11797;SDS011;5956;51.428;6.682;2023-02-18T02:16:44;11.87;;;10.80;;
11797;SDS011;5956;51.428;6.682;2023-02-18T02:19:21;11.37;;;10.40;;
11797;SDS011;5956;51.428;6.682;2023-02-18T02:24:46;11.27;;;10.27;;
11797;SDS011;5956;51.428;6.682;2023-02-18T02:27:18;10.83;;;9.83;;
11797;SDS011;5956;51.428;6.682;2023-02-18T02:30:03;11.37;;;10.33;;
11797;SDS011;5956;51.428;6.682;2023-02-18T02:35:20;10.23;;;9.30;;
11797;SDS011;5956;51.428;6.682;2023-02-18T02:37:49;11.07;;;10.10;;
11797;SDS011;5956;51.428;6.682;2023-02-18T02:40:19;10.60;;;9.50;;
11797;SDS011;5956;51.428;6.682;2023-02-18T02:42:51;10.87;;;9.33;;
11797;SDS011;5956;51.428;6.682;2023-02-18T02:45:21;10.07;;;9.23;;
11797;SDS011;5956;51.428;6.682;2023-02-18T02:47:50;10.37;;;9.47;;
11797;SDS011;5956;51.428;6.682;2023-02-18T02:50:24;10.33;;;9.43;;
11797;SDS011;5956;51.428;6.682;2023-02-18T02:52:55;10.67;;;9.77;;
11797;SDS011;5956;51.428;6.682;2023-02-18T02:55:22;9.70;;;8.90;;
11797;SDS011;5956;51.428;6.682;2023-02-18T02:57:50;11.20;;;10.20;;
11797;SDS011;5956;51.428;6.682;2023-02-18T03:00:17;11.17;;;10.00;;
11797;SDS011;5956;51.428;6.682;2023-02-18T03:02:48;11.50;;;10.23;;
11797;SDS011;5956;51.428;6.682;2023-02-18T03:05:20;11.40;;;10.33;;
11797;SDS011;5956;51.428;6.682;2023-02-18T03:07:56;11.40;;;10.40;;
11797;SDS011;5956;51.428;6.682;2023-02-18T03:10:28;11.30;;;10.30;;
11797;SDS011;5956;51.428;6.682;2023-02-18T03:13:00;12.53;;;11.23;;
11797;SDS011;5956;51.428;6.682;2023-02-18T03:15:32;12.33;;;11.13;;
11797;SDS011;5956;51.428;6.682;2023-02-18T03:18:01;11.90;;;10.70;;
11797;SDS011;5956;51.428;6.682;2023-02-18T03:20:32;12.60;;;11.40;;
11797;SDS011;5956;51.428;6.682;2023-02-18T03:23:02;13.37;;;11.97;;
11797;SDS011;5956;51.428;6.682;2023-02-18T03:25:29;13.60;;;12.30;;
11797;SDS011;5956;51.428;6.682;2023-02-18T03:27:58;13.77;;;12.23;;
11797;SDS011;5956;51.428;6.682;2023-02-18T03:30:26;12.90;;;11.70;;
11797;SDS011;5956;51.428;6.682;2023-02-18T03:32:54;12.57;;;11.37;;
11797;SDS011;5956;51.428;6.682;2023-02-18T03:35:22;13.83;;;12.43;;
11797;SDS011;5956;51.428;6.682;2023-02-18T03:37:49;15.13;;;13.63;;
11797;SDS011;5956;51.428;6.682;2023-02-18T03:40:19;13.73;;;12.43;;
11797;SDS011;5956;51.428;6.682;2023-02-18T03:42:46;13.33;;;12.03;;
11797;SDS011;5956;51.428;6.682;2023-02-18T03:45:12;15.10;;;12.87;;
11797;SDS011;5956;51.428;6.682;2023-02-18T03:47:39;13.30;;;12.10;;
11797;SDS011;5956;51.428;6.682;2023-02-18T03:50:06;13.07;;;11.47;;
11797;SDS011;5956;51.428;6.682;2023-02-18T03:52:33;12.93;;;11.63;;
11797;SDS011;5956;51.428;6.682;2023-02-18T03:55:00;12.47;;;11.27;;
11797;SDS011;5956;51.428;6.682;2023-02-18T03:57:28;11.73;;;10.53;;
11797;SDS011;5956;51.428;6.682;2023-02-18T03:59:55;11.93;;;10.73;;
11797;SDS011;5956;51.428;6.682;2023-02-18T04:02:22;11.40;;;10.30;;
11797;SDS011;5956;51.428;6.682;2023-02-18T04:04:48;11.17;;;9.97;;
11797;SDS011;5956;51.428;6.682;2023-02-18T04:07:15;11.03;;;10.00;;
11797;SDS011;5956;51.428;6.682;2023-02-18T04:09:42;10.50;;;9.40;;
11797;SDS011;5956;51.428;6.682;2023-02-18T04:12:08;10.80;;;9.80;;
11797;SDS011;5956;51.428;6.682;2023-02-18T04:14:36;10.13;;;9.17;;
11797;SDS011;5956;51.428;6.682;2023-02-18T04:17:03;10.57;;;9.57;;
11797;SDS011;5956;51.428;6.682;2023-02-18T04:19:29;11.57;;;10.13;;
11797;SDS011;5956;51.428;6.682;2023-02-18T04:21:56;11.60;;;10.50;;
11797;SDS011;5956;51.428;6.682;2023-02-18T04:24:23;11.30;;;9.73;;
11797;SDS011;5956;51.428;6.682;2023-02-18T04:26:49;11.83;;;9.97;;
11797;SDS011;5956;51.428;6.682;2023-02-18T04:29:16;9.20;;;8.40;;
11797;SDS011;5956;51.428;6.682;2023-02-18T04:31:44;9.13;;;8.20;;
11797;SDS011;5956;51.428;6.682;2023-02-18T04:34:11;8.80;;;7.90;;
11797;SDS011;5956;51.428;6.682;2023-02-18T04:36:38;8.50;;;7.13;;
11797;SDS011;5956;51.428;6.682;2023-02-18T04:39:04;8.87;;;7.10;;
11797;SDS011;5956;51.428;6.682;2023-02-18T04:41:31;7.73;;;6.90;;
11797;SDS011;5956;51.428;6.682;2023-02-18T04:43:58;10.57;;;6.80;;
11797;SDS011;5956;51.428;6.682;2023-02-18T04:46:24;7.23;;;6.53;;
11797;SDS011;5956;51.428;6.682;2023-02-18T04:48:52;7.53;;;6.27;;
11797;SDS011;5956;51.428;6.682;2023-02-18T04:51:19;7.73;;;6.60;;
11797;SDS011;5956;51.428;6.682;2023-02-18T04:53:46;6.73;;;5.83;;
11797;SDS011;5956;51.428;6.682;2023-02-18T04:56:12;9.33;;;8.37;;
11797;SDS011;5956;51.428;6.682;2023-02-18T04:58:39;6.33;;;5.67;;
11797;SDS011;5956;51.428;6.682;2023-02-18T05:01:06;5.90;;;5.13;;
11797;SDS011;5956;51.428;6.682;2023-02-18T05:03:32;5.40;;;4.90;;
11797;SDS011;5956;51.428;6.682;2023-02-18T05:06:00;4.43;;;4.00;;
11797;SDS011;5956;51.428;6.682;2023-02-18T05:08:27;4.00;;;3.70;;
11797;SDS011;5956;51.428;6.682;2023-02-18T05:10:54;3.73;;;3.43;;
11797;SDS011;5956;51.428;6.682;2023-02-18T05:13:21;3.77;;;3.47;;
11797;SDS011;5956;51.428;6.682;2023-02-18T05:15:47;3.13;;;2.83;;
11797;SDS011;5956;51.428;6.682;2023-02-18T05:18:14;3.10;;;2.90;;
11797;SDS011;5956;51.428;6.682;2023-02-18T05:20:40;2.80;;;2.60;;
11797;SDS011;5956;51.428;6.682;2023-02-18T05:23:09;3.77;;;3.23;;
11797;SDS011;5956;51.428;6.682;2023-02-18T05:25:35;2.93;;;2.60;;
11797;SDS011;5956;51.428;6.682;2023-02-18T05:28:02;2.50;;;2.40;;
11797;SDS011;5956;51.428;6.682;2023-02-18T05:30:28;2.87;;;2.60;;
11797;SDS011;5956;51.428;6.682;2023-02-18T05:32:55;2.40;;;2.20;;
11797;SDS011;5956;51.428;6.682;2023-02-18T05:35:21;2.50;;;2.40;;
11797;SDS011;5956;51.428;6.682;2023-02-18T05:37:48;2.80;;;2.60;;
11797;SDS011;5956;51.428;6.682;2023-02-18T05:40:16;2.87;;;2.67;;
11797;SDS011;5956;51.428;6.682;2023-02-18T05:42:43;3.33;;;3.03;;
11797;SDS011;5956;51.428;6.682;2023-02-18T05:45:10;2.90;;;2.70;;
11797;SDS011;5956;51.428;6.682;2023-02-18T05:47:36;3.30;;;3.00;;
11797;SDS011;5956;51.428;6.682;2023-02-18T05:50:03;4.30;;;4.00;;
11797;SDS011;5956;51.428;6.682;2023-02-18T05:52:30;3.23;;;3.03;;
11797;SDS011;5956;51.428;6.682;2023-02-18T05:54:57;2.83;;;2.63;;
11797;SDS011;5956;51.428;6.682;2023-02-18T05:57:25;3.17;;;2.87;;
11797;SDS011;5956;51.428;6.682;2023-02-18T05:59:51;2.87;;;2.67;;
11797;SDS011;5956;51.428;6.682;2023-02-18T06:02:18;3.27;;;2.87;;
11797;SDS011;5956;51.428;6.682;2023-02-18T06:04:44;3.13;;;2.90;;
11797;SDS011;5956;51.428;6.682;2023-02-18T06:07:11;2.97;;;2.77;;
11797;SDS011;5956;51.428;6.682;2023-02-18T06:09:38;3.07;;;2.80;;
11797;SDS011;5956;51.428;6.682;2023-02-18T06:12:04;2.50;;;2.40;;
11797;SDS011;5956;51.428;6.682;2023-02-18T06:14:33;2.73;;;2.53;;
11797;SDS011;5956;51.428;6.682;2023-02-18T06:16:59;3.30;;;2.37;;
11797;SDS011;5956;51.428;6.682;2023-02-18T06:19:26;2.70;;;2.50;;
11797;SDS011;5956;51.428;6.682;2023-02-18T06:21:52;2.60;;;2.40;;
11797;SDS011;5956;51.428;6.682;2023-02-18T06:24:20;2.50;;;2.30;;
11797;SDS011;5956;51.428;6.682;2023-02-18T06:26:46;2.67;;;2.47;;
11797;SDS011;5956;51.428;6.682;2023-02-18T06:29:13;3.27;;;2.97;;
11797;SDS011;5956;51.428;6.682;2023-02-18T06:31:41;2.67;;;2.43;;
11797;SDS011;5956;51.428;6.682;2023-02-18T06:34:07;2.53;;;2.43;;
11797;SDS011;5956;51.428;6.682;2023-02-18T06:36:34;2.70;;;2.50;;
11797;SDS011;5956;51.428;6.682;2023-02-18T06:39:01;3.50;;;3.20;;
11797;SDS011;5956;51.428;6.682;2023-02-18T06:41:28;3.13;;;2.90;;
11797;SDS011;5956;51.428;6.682;2023-02-18T06:43:55;3.77;;;3.47;;
11797;SDS011;5956;51.428;6.682;2023-02-18T06:46:21;3.40;;;3.20;;
11797;SDS011;5956;51.428;6.682;2023-02-18T06:48:49;3.10;;;2.90;;
11797;SDS011;5956;51.428;6.682;2023-02-18T06:51:16;4.77;;;3.27;;
11797;SDS011;5956;51.428;6.682;2023-02-18T06:53:43;4.43;;;3.60;;
11797;SDS011;5956;51.428;6.682;2023-02-18T06:56:10;3.43;;;3.20;;
11797;SDS011;5956;51.428;6.682;2023-02-18T06:58:37;3.53;;;3.23;;
11797;SDS011;5956;51.428;6.682;2023-02-18T07:01:04;3.67;;;3.37;;
11797;SDS011;5956;51.428;6.682;2023-02-18T07:03:31;3.60;;;3.30;;
11797;SDS011;5956;51.428;6.682;2023-02-18T07:05:59;2.93;;;2.70;;
11797;SDS011;5956;51.428;6.682;2023-02-18T07:08:26;3.50;;;3.13;;
11797;SDS011;5956;51.428;6.682;2023-02-18T07:10:54;6.17;;;3.03;;
11797;SDS011;5956;51.428;6.682;2023-02-18T07:13:21;3.43;;;3.13;;
11797;SDS011;5956;51.428;6.682;2023-02-18T07:15:48;3.33;;;3.03;;
11797;SDS011;5956;51.428;6.682;2023-02-18T07:18:14;2.97;;;2.77;;
11797;SDS011;5956;51.428;6.682;2023-02-18T07:20:41;2.87;;;2.67;;
11797;SDS011;5956;51.428;6.682;2023-02-18T07:23:09;2.60;;;2.40;;
11797;SDS011;5956;51.428;6.682;2023-02-18T07:25:36;2.30;;;2.10;;
11797;SDS011;5956;51.428;6.682;2023-02-18T07:28:03;2.10;;;2.00;;
11797;SDS011;5956;51.428;6.682;2023-02-18T07:30:29;2.30;;;2.20;;
11797;SDS011;5956;51.428;6.682;2023-02-18T07:32:56;2.27;;;2.13;;
11797;SDS011;5956;51.428;6.682;2023-02-18T07:35:23;2.23;;;2.13;;
11797;SDS011;5956;51.428;6.682;2023-02-18T07:37:49;2.30;;;2.17;;
11797;SDS011;5956;51.428;6.682;2023-02-18T07:40:18;2.00;;;1.90;;
11797;SDS011;5956;51.428;6.682;2023-02-18T07:42:45;2.17;;;2.03;;
11797;SDS011;5956;51.428;6.682;2023-02-18T07:45:11;2.77;;;1.97;;
11797;SDS011;5956;51.428;6.682;2023-02-18T07:47:38;1.80;;;1.70;;
11797;SDS011;5956;51.428;6.682;2023-02-18T07:50:06;1.80;;;1.70;;
11797;SDS011;5956;51.428;6.682;2023-02-18T07:52:33;2.90;;;2.70;;
11797;SDS011;5956;51.428;6.682;2023-02-18T07:55:00;1.50;;;1.40;;
11797;SDS011;5956;51.428;6.682;2023-02-18T07:57:28;1.90;;;1.80;;
11797;SDS011;5956;51.428;6.682;2023-02-18T07:59:55;2.07;;;1.60;;
11797;SDS011;5956;51.428;6.682;2023-02-18T08:02:22;1.60;;;1.50;;
11797;SDS011;5956;51.428;6.682;2023-02-18T08:04:49;2.20;;;1.83;;
11797;SDS011;5956;51.428;6.682;2023-02-18T08:07:17;2.40;;;1.97;;
11797;SDS011;5956;51.428;6.682;2023-02-18T08:09:44;1.63;;;1.53;;
11797;SDS011;5956;51.428;6.682;2023-02-18T08:12:13;1.83;;;1.73;;
11797;SDS011;5956;51.428;6.682;2023-02-18T08:14:41;1.53;;;1.50;;
11797;SDS011;5956;51.428;6.682;2023-02-18T08:17:08;1.77;;;1.63;;
11797;SDS011;5956;51.428;6.682;2023-02-18T08:19:35;1.67;;;1.40;;
11797;SDS011;5956;51.428;6.682;2023-02-18T08:22:02;2.87;;;1.97;;
11797;SDS011;5956;51.428;6.682;2023-02-18T08:24:29;2.83;;;2.00;;
11797;SDS011;5956;51.428;6.682;2023-02-18T08:26:56;2.60;;;2.40;;
11797;SDS011;5956;51.428;6.682;2023-02-18T08:29:23;2.90;;;2.30;;
11797;SDS011;5956;51.428;6.682;2023-02-18T08:31:51;2.80;;;2.30;;
11797;SDS011;5956;51.428;6.682;2023-02-18T08:34:19;3.93;;;2.50;;
11797;SDS011;5956;51.428;6.682;2023-02-18T08:36:46;3.83;;;2.60;;
11797;SDS011;5956;51.428;6.682;2023-02-18T08:39:13;5.10;;;3.10;;
11797;SDS011;5956;51.428;6.682;2023-02-18T08:41:40;7.37;;;4.30;;
11797;SDS011;5956;51.428;6.682;2023-02-18T08:44:06;8.43;;;3.30;;
11797;SDS011;5956;51.428;6.682;2023-02-18T08:46:33;5.07;;;2.57;;
11797;SDS011;5956;51.428;6.682;2023-02-18T08:49:01;7.77;;;3.13;;
11797;SDS011;5956;51.428;6.682;2023-02-18T08:51:28;7.30;;;3.70;;
11797;SDS011;5956;51.428;6.682;2023-02-18T08:53:55;6.83;;;3.13;;
11797;SDS011;5956;51.428;6.682;2023-02-18T08:56:25;4.70;;;3.60;;
11797;SDS011;5956;51.428;6.682;2023-02-18T08:58:52;7.60;;;4.00;;
11797;SDS011;5956;51.428;6.682;2023-02-18T09:01:21;5.80;;;3.70;;
11797;SDS011;5956;51.428;6.682;2023-02-18T09:03:47;7.60;;;3.33;;
11797;SDS011;5956;51.428;6.682;2023-02-18T09:06:16;6.17;;;3.20;;
11797;SDS011;5956;51.428;6.682;2023-02-18T09:08:43;4.50;;;2.90;;
11797;SDS011;5956;51.428;6.682;2023-02-18T09:11:10;7.73;;;3.00;;
11797;SDS011;5956;51.428;6.682;2023-02-18T09:13:37;11.53;;;3.50;;
11797;SDS011;5956;51.428;6.682;2023-02-18T09:16:05;9.07;;;2.70;;
11797;SDS011;5956;51.428;6.682;2023-02-18T09:18:32;9.07;;;3.27;;
11797;SDS011;5956;51.428;6.682;2023-02-18T09:21:00;7.93;;;2.93;;
11797;SDS011;5956;51.428;6.682;2023-02-18T09:23:29;6.20;;;2.90;;
11797;SDS011;5956;51.428;6.682;2023-02-18T09:25:56;8.03;;;3.77;;
11797;SDS011;5956;51.428;6.682;2023-02-18T09:28:23;6.83;;;2.97;;
11797;SDS011;5956;51.428;6.682;2023-02-18T09:30:50;8.20;;;3.03;;
11797;SDS011;5956;51.428;6.682;2023-02-18T09:33:18;7.63;;;2.90;;
11797;SDS011;5956;51.428;6.682;2023-02-18T09:35:45;9.47;;;3.33;;
11797;SDS011;5956;51.428;6.682;2023-02-18T09:38:13;9.20;;;3.00;;
11797;SDS011;5956;51.428;6.682;2023-02-18T09:40:42;10.83;;;3.10;;
11797;SDS011;5956;51.428;6.682;2023-02-18T09:43:12;8.40;;;4.10;;
11797;SDS011;5956;51.428;6.682;2023-02-18T09:45:43;7.07;;;2.83;;
11797;SDS011;5956;51.428;6.682;2023-02-18T09:48:10;8.30;;;3.23;;
11797;SDS011;5956;51.428;6.682;2023-02-18T09:50:37;9.43;;;3.30;;
11797;SDS011;5956;51.428;6.682;2023-02-18T09:53:04;9.20;;;3.33;;
11797;SDS011;5956;51.428;6.682;2023-02-18T09:55:32;10.47;;;3.30;;
11797;SDS011;5956;51.428;6.682;2023-02-18T09:58:02;7.23;;;3.33;;
11797;SDS011;5956;51.428;6.682;2023-02-18T10:00:31;10.07;;;3.30;;
11797;SDS011;5956;51.428;6.682;2023-02-18T10:03:00;11.20;;;3.60;;
11797;SDS011;5956;51.428;6.682;2023-02-18T10:05:28;7.87;;;3.30;;
11797;SDS011;5956;51.428;6.682;2023-02-18T10:07:57;7.77;;;3.13;;
11797;SDS011;5956;51.428;6.682;2023-02-18T10:10:28;10.07;;;3.90;;
11797;SDS011;5956;51.428;6.682;2023-02-18T10:12:58;9.07;;;3.40;;
11797;SDS011;5956;51.428;6.682;2023-02-18T10:15:27;11.63;;;3.73;;
11797;SDS011;5956;51.428;6.682;2023-02-18T10:17:54;8.67;;;3.33;;
11797;SDS011;5956;51.428;6.682;2023-02-18T10:20:22;10.33;;;3.80;;
11797;SDS011;5956;51.428;6.682;2023-02-18T10:22:49;12.00;;;3.70;;
11797;SDS011;5956;51.428;6.682;2023-02-18T10:25:17;10.97;;;3.60;;
11797;SDS011;5956;51.428;6.682;2023-02-18T10:27:44;8.97;;;3.63;;
11797;SDS011;5956;51.428;6.682;2023-02-18T10:30:17;8.67;;;3.90;;
11797;SDS011;5956;51.428;6.682;2023-02-18T10:32:47;13.87;;;4.43;;
11797;SDS011;5956;51.428;6.682;2023-02-18T10:35:18;13.03;;;3.73;;
11797;SDS011;5956;51.428;6.682;2023-02-18T10:37:53;13.90;;;3.57;;
11797;SDS011;5956;51.428;6.682;2023-02-18T10:40:21;8.33;;;4.07;;
11797;SDS011;5956;51.428;6.682;2023-02-18T10:42:53;9.30;;;3.57;;
11797;SDS011;5956;51.428;6.682;2023-02-18T10:45:27;9.37;;;3.50;;
11797;SDS011;5956;51.428;6.682;2023-02-18T10:48:06;8.73;;;3.60;;
11797;SDS011;5956;51.428;6.682;2023-02-18T10:50:36;7.07;;;3.60;;
11797;SDS011;5956;51.428;6.682;2023-02-18T10:53:09;12.77;;;3.50;;
11797;SDS011;5956;51.428;6.682;2023-02-18T10:55:41;7.70;;;4.17;;
11797;SDS011;5956;51.428;6.682;2023-02-18T10:58:24;8.97;;;3.47;;
11797;SDS011;5956;51.428;6.682;2023-02-18T11:00:51;12.27;;;4.40;;
11797;SDS011;5956;51.428;6.682;2023-02-18T11:03:20;11.77;;;4.20;;
11797;SDS011;5956;51.428;6.682;2023-02-18T11:05:49;9.47;;;3.60;;
11797;SDS011;5956;51.428;6.682;2023-02-18T11:08:17;8.70;;;4.07;;
11797;SDS011;5956;51.428;6.682;2023-02-18T11:10:45;8.03;;;3.63;;
11797;SDS011;5956;51.428;6.682;2023-02-18T11:13:13;10.97;;;4.00;;
11797;SDS011;5956;51.428;6.682;2023-02-18T11:15:52;10.83;;;4.47;;
11797;SDS011;5956;51.428;6.682;2023-02-18T11:18:26;8.33;;;4.40;;
11797;SDS011;5956;51.428;6.682;2023-02-18T11:20:55;10.50;;;4.10;;
11797;SDS011;5956;51.428;6.682;2023-02-18T11:23:22;11.47;;;4.20;;
11797;SDS011;5956;51.428;6.682;2023-02-18T11:25:54;5.27;;;3.47;;
11797;SDS011;5956;51.428;6.682;2023-02-18T11:28:26;8.40;;;3.63;;
11797;SDS011;5956;51.428;6.682;2023-02-18T11:30:55;12.43;;;4.27;;
11797;SDS011;5956;51.428;6.682;2023-02-18T11:33:23;10.80;;;4.53;;
11797;SDS011;5956;51.428;6.682;2023-02-18T11:35:56;7.57;;;3.73;;
11797;SDS011;5956;51.428;6.682;2023-02-18T11:38:24;11.17;;;3.87;;
11797;SDS011;5956;51.428;6.682;2023-02-18T11:40:53;7.03;;;3.40;;
11797;SDS011;5956;51.428;6.682;2023-02-18T11:43:22;11.53;;;4.20;;
11797;SDS011;5956;51.428;6.682;2023-02-18T11:46:06;8.03;;;4.00;;
11797;SDS011;5956;51.428;6.682;2023-02-18T11:48:33;6.83;;;3.53;;
11797;SDS011;5956;51.428;6.682;2023-02-18T11:51:02;5.23;;;3.33;;
11797;SDS011;5956;51.428;6.682;2023-02-18T11:53:30;7.50;;;3.33;;
11797;SDS011;5956;51.428;6.682;2023-02-18T11:55:59;8.63;;;3.73;;
11797;SDS011;5956;51.428;6.682;2023-02-18T11:58:27;8.50;;;4.20;;
11797;SDS011;5956;51.428;6.682;2023-02-18T12:00:58;8.13;;;3.60;;
11797;SDS011;5956;51.428;6.682;2023-02-18T12:03:27;3.47;;;3.17;;
11797;SDS011;5956;51.428;6.682;2023-02-18T12:05:56;6.90;;;3.37;;
11797;SDS011;5956;51.428;6.682;2023-02-18T12:08:26;9.23;;;3.67;;
11797;SDS011;5956;51.428;6.682;2023-02-18T12:10:55;6.90;;;3.67;;
11797;SDS011;5956;51.428;6.682;2023-02-18T12:13:25;5.43;;;3.40;;
11797;SDS011;5956;51.428;6.682;2023-02-18T12:15:56;6.43;;;3.20;;
11797;SDS011;5956;51.428;6.682;2023-02-18T12:18:38;5.60;;;4.07;;
11797;SDS011;5956;51.428;6.682;2023-02-18T12:21:12;5.77;;;3.50;;
11797;SDS011;5956;51.428;6.682;2023-02-18T12:23:45;3.83;;;3.30;;
11797;SDS011;5956;51.428;6.682;2023-02-18T12:26:17;7.67;;;3.60;;
11797;SDS011;5956;51.428;6.682;2023-02-18T12:28:51;5.20;;;3.40;;
11797;SDS011;5956;51.428;6.682;2023-02-18T12:34:17;5.50;;;3.50;;
11797;SDS011;5956;51.428;6.682;2023-02-18T12:36:52;6.23;;;3.80;;
11797;SDS011;5956;51.428;6.682;2023-02-18T12:39:28;5.97;;;3.90;;
11797;SDS011;5956;51.428;6.682;2023-02-18T12:42:01;5.57;;;4.00;;
11797;SDS011;5956;51.428;6.682;2023-02-18T12:44:33;6.13;;;4.60;;
11797;SDS011;5956;51.428;6.682;2023-02-18T12:47:14;7.90;;;3.77;;
11797;SDS011;5956;51.428;6.682;2023-02-18T12:49:57;4.50;;;3.60;;
11797;SDS011;5956;51.428;6.682;2023-02-18T12:52:29;8.33;;;3.97;;
11797;SDS011;5956;51.428;6.682;2023-02-18T12:57:43;5.80;;;4.03;;
11797;SDS011;5956;51.428;6.682;2023-02-18T13:00:21;4.47;;;3.57;;
11797;SDS011;5956;51.428;6.682;2023-02-18T13:03:05;4.50;;;3.67;;
11797;SDS011;5956;51.428;6.682;2023-02-18T13:05:37;4.70;;;4.13;;
11797;SDS011;5956;51.428;6.682;2023-02-18T13:08:11;5.90;;;4.50;;
11797;SDS011;5956;51.428;6.682;2023-02-18T13:10:45;5.57;;;4.70;;
11797;SDS011;5956;51.428;6.682;2023-02-18T13:13:17;5.13;;;4.50;;
11797;SDS011;5956;51.428;6.682;2023-02-18T13:15:45;10.47;;;8.27;;
11797;SDS011;5956;51.428;6.682;2023-02-18T13:18:15;7.70;;;5.20;;
11797;SDS011;5956;51.428;6.682;2023-02-18T13:20:45;7.77;;;5.50;;
11797;SDS011;5956;51.428;6.682;2023-02-18T13:23:19;5.60;;;5.07;;
11797;SDS011;5956;51.428;6.682;2023-02-18T13:25:47;6.90;;;5.57;;
11797;SDS011;5956;51.428;6.682;2023-02-18T13:28:19;7.40;;;6.03;;
11797;SDS011;5956;51.428;6.682;2023-02-18T13:30:47;7.00;;;6.37;;
11797;SDS011;5956;51.428;6.682;2023-02-18T13:33:16;10.30;;;6.90;;
11797;SDS011;5956;51.428;6.682;2023-02-18T13:35:45;10.00;;;7.50;;
11797;SDS011;5956;51.428;6.682;2023-02-18T13:38:22;8.90;;;7.77;;
11797;SDS011;5956;51.428;6.682;2023-02-18T13:40:52;9.40;;;7.90;;
11797;SDS011;5956;51.428;6.682;2023-02-18T13:43:29;8.67;;;7.57;;
11797;SDS011;5956;51.428;6.682;2023-02-18T13:46:02;9.53;;;7.83;;
11797;SDS011;5956;51.428;6.682;2023-02-18T13:48:31;12.87;;;8.17;;
11797;SDS011;5956;51.428;6.682;2023-02-18T13:51:01;9.27;;;8.37;;
11797;SDS011;5956;51.428;6.682;2023-02-18T13:53:30;12.80;;;8.87;;
11797;SDS011;5956;51.428;6.682;2023-02-18T13:56:01;10.20;;;8.57;;
11797;SDS011;5956;51.428;6.682;2023-02-18T13:58:33;10.33;;;8.27;;
11797;SDS011;5956;51.428;6.682;2023-02-18T14:01:03;11.50;;;8.87;;
11797;SDS011;5956;51.428;6.682;2023-02-18T14:03:32;11.83;;;9.37;;
11797;SDS011;5956;51.428;6.682;2023-02-18T14:06:00;16.63;;;10.33;;
11797;SDS011;5956;51.428;6.682;2023-02-18T14:08:30;13.93;;;10.07;;
11797;SDS011;5956;51.428;6.682;2023-02-18T14:13:47;12.17;;;10.30;;
11797;SDS011;5956;51.428;6.682;2023-02-18T14:16:14;15.40;;;10.17;;
11797;SDS011;5956;51.428;6.682;2023-02-18T14:18:58;13.63;;;10.40;;
11797;SDS011;5956;51.428;6.682;2023-02-18T14:21:39;15.37;;;9.80;;
11797;SDS011;5956;51.428;6.682;2023-02-18T14:24:06;13.07;;;10.07;;
11797;SDS011;5956;51.428;6.682;2023-02-18T14:26:36;13.03;;;10.57;;
11797;SDS011;5956;51.428;6.682;2023-02-18T14:29:05;13.40;;;10.43;;
11797;SDS011;5956;51.428;6.682;2023-02-18T14:31:34;12.13;;;10.13;;
11797;SDS011;5956;51.428;6.682;2023-02-18T14:36:45;18.33;;;12.90;;
11797;SDS011;5956;51.428;6.682;2023-02-18T14:39:22;16.50;;;11.43;;
11797;SDS011;5956;51.428;6.682;2023-02-18T14:41:54;14.77;;;10.50;;
11797;SDS011;5956;51.428;6.682;2023-02-18T14:44:31;14.10;;;10.90;;
11797;SDS011;5956;51.428;6.682;2023-02-18T14:47:05;14.87;;;11.47;;
11797;SDS011;5956;51.428;6.682;2023-02-18T14:49:36;18.20;;;11.70;;
11797;SDS011;5956;51.428;6.682;2023-02-18T14:52:04;17.13;;;10.70;;
11797;SDS011;5956;51.428;6.682;2023-02-18T14:54:31;13.33;;;10.63;;
11797;SDS011;5956;51.428;6.682;2023-02-18T14:56:59;20.40;;;11.37;;
11797;SDS011;5956;51.428;6.682;2023-02-18T14:59:33;15.70;;;11.20;;
11797;SDS011;5956;51.428;6.682;2023-02-18T15:02:01;16.73;;;11.40;;
11797;SDS011;5956;51.428;6.682;2023-02-18T15:04:28;13.20;;;10.70;;
11797;SDS011;5956;51.428;6.682;2023-02-18T15:06:59;17.90;;;11.13;;
11797;SDS011;5956;51.428;6.682;2023-02-18T15:09:27;15.63;;;10.67;;
11797;SDS011;5956;51.428;6.682;2023-02-18T15:11:57;15.47;;;10.70;;
11797;SDS011;5956;51.428;6.682;2023-02-18T15:14:28;16.80;;;10.17;;
11797;SDS011;5956;51.428;6.682;2023-02-18T15:16:56;17.67;;;10.83;;